Garden Spring, Nevada Weather observations

Data are for 10 minute period ending at time listed.
 Day   Time    Ave.   Ave.  Ave.  Vector   Max.   Stn.    Total    Solar   Ave.  
  of    of     Air    Rel.  Wind   Wind    Wind   Baro.  Precip.   Rad.    Soil  
Year   Day     Temp.  Hum.  Speed  Dir.    Gust   Pres.                    Temp. 
2014   (PST)    F      %     mph   deg.    mph     mb.     in.     W/m2     F    
--------------------------------------------------------------------------------- 
 354    0:00   33.6    87    4.1   276      6.6   855.4    0.00       0    41.4  
 354    1:00   34.4    84    3.9   274      6.3   855.0    0.00       0    41.0  
 354    2:00   35.4    83    3.5   276      6.2   855.0    0.00       0    40.7  
 354    3:00   33.6    85    4.1   280      6.0   854.7    0.00       0    40.2  
 354    4:00   33.8    85    3.9   274      6.1   854.5    0.00       0    39.9  
 354    5:00   35.4    86    3.1   281      4.8   854.6    0.00       0    39.9  
 354    6:00   35.6    86    3.2   275      5.4   854.2    0.00       0    39.5  
 354    7:00   34.1    88    3.4   272      6.0   853.9    0.00       6    39.1  
 354    8:00   37.3    80    3.1   274      5.7   854.7    0.00      65    39.2  
 354    9:00   39.7    78    1.5   254      3.5   855.0    0.00     102    39.3  
 354   10:00   42.0    71    1.2   147      5.0   855.5    0.00     176    39.7  
 354   11:00   43.4    68    2.7   155      6.2   855.1    0.00     260    40.1  
 354   12:00   45.0    62    2.4   145      6.5   854.5    0.00     282    41.0  
 354   13:00   45.3    62    3.1   145      7.9   853.8    0.00     241    41.8  
 354   14:00   44.2    65    3.7   151      8.5   853.1    0.00     150    42.6  
 354   15:00   44.2    66    3.1   152      6.4   853.4    0.00     117    43.2  
 354   16:00   43.4    69    3.2   134      5.7   853.6    0.00      45    43.5  
 354   17:00   41.9    74    1.7   160      5.2   853.9    0.00       3    43.6  
 354   18:00   41.0    78    3.4   272      5.7   854.0    0.00       0    43.4  
 354   19:00   39.1    81    1.7   243      4.5   854.1    0.00       0    43.1  
 354   20:00   39.0    82    3.2   294      5.9   854.3    0.00       0    42.8  
 354   21:00   38.6    79    3.3   269      5.9   854.4    0.00       0    42.4  
 354   22:00   37.5    79    3.1   264      7.6   854.5    0.00       0    41.9  
 354   23:00   37.2    79    2.4   271      5.4   854.7    0.00       0    41.5  

Return to Garden Spring, Nevada graphs page.


Western Regional Climate Center,wrcc@dri.edu